sensor_id;sensor_type;location;lat;lon;timestamp;P1;durP1;ratioP1;P2;durP2;ratioP2
6282;SDS011;3174;53.486;9.568;2022-11-15T00:01:01;16.30;;;9.00;;
6282;SDS011;3174;53.486;9.568;2022-11-15T00:03:29;16.53;;;8.20;;
6282;SDS011;3174;53.486;9.568;2022-11-15T00:06:00;18.07;;;8.33;;
6282;SDS011;3174;53.486;9.568;2022-11-15T00:08:30;16.60;;;8.47;;
6282;SDS011;3174;53.486;9.568;2022-11-15T00:10:58;17.00;;;9.03;;
6282;SDS011;3174;53.486;9.568;2022-11-15T00:13:27;16.20;;;9.10;;
6282;SDS011;3174;53.486;9.568;2022-11-15T00:15:58;14.17;;;8.07;;
6282;SDS011;3174;53.486;9.568;2022-11-15T00:18:26;20.83;;;9.13;;
6282;SDS011;3174;53.486;9.568;2022-11-15T00:20:54;14.00;;;8.13;;
6282;SDS011;3174;53.486;9.568;2022-11-15T00:23:22;19.27;;;10.00;;
6282;SDS011;3174;53.486;9.568;2022-11-15T00:25:55;19.97;;;9.40;;
6282;SDS011;3174;53.486;9.568;2022-11-15T00:28:23;19.00;;;10.30;;
6282;SDS011;3174;53.486;9.568;2022-11-15T00:30:51;20.30;;;10.30;;
6282;SDS011;3174;53.486;9.568;2022-11-15T00:33:20;19.17;;;9.60;;
6282;SDS011;3174;53.486;9.568;2022-11-15T00:35:48;20.33;;;10.50;;
6282;SDS011;3174;53.486;9.568;2022-11-15T00:38:16;21.13;;;10.83;;
6282;SDS011;3174;53.486;9.568;2022-11-15T00:40:44;16.13;;;9.17;;
6282;SDS011;3174;53.486;9.568;2022-11-15T00:43:12;18.50;;;10.40;;
6282;SDS011;3174;53.486;9.568;2022-11-15T00:45:40;19.13;;;10.27;;
6282;SDS011;3174;53.486;9.568;2022-11-15T00:48:08;19.80;;;10.13;;
6282;SDS011;3174;53.486;9.568;2022-11-15T00:50:38;15.47;;;8.87;;
6282;SDS011;3174;53.486;9.568;2022-11-15T00:53:07;15.43;;;9.20;;
6282;SDS011;3174;53.486;9.568;2022-11-15T00:55:34;19.00;;;10.17;;
6282;SDS011;3174;53.486;9.568;2022-11-15T00:58:02;15.70;;;8.13;;
6282;SDS011;3174;53.486;9.568;2022-11-15T01:00:30;15.03;;;8.23;;
6282;SDS011;3174;53.486;9.568;2022-11-15T01:02:59;15.33;;;8.53;;
6282;SDS011;3174;53.486;9.568;2022-11-15T01:05:27;13.97;;;7.33;;
6282;SDS011;3174;53.486;9.568;2022-11-15T01:07:56;14.40;;;8.10;;
6282;SDS011;3174;53.486;9.568;2022-11-15T01:10:24;17.33;;;9.07;;
6282;SDS011;3174;53.486;9.568;2022-11-15T01:12:53;17.40;;;8.43;;
6282;SDS011;3174;53.486;9.568;2022-11-15T01:15:21;12.70;;;7.90;;
6282;SDS011;3174;53.486;9.568;2022-11-15T01:17:49;18.57;;;8.90;;
6282;SDS011;3174;53.486;9.568;2022-11-15T01:20:16;16.03;;;9.27;;
6282;SDS011;3174;53.486;9.568;2022-11-15T01:22:45;19.87;;;9.80;;
6282;SDS011;3174;53.486;9.568;2022-11-15T01:25:14;17.87;;;9.77;;
6282;SDS011;3174;53.486;9.568;2022-11-15T01:27:42;15.53;;;8.37;;
6282;SDS011;3174;53.486;9.568;2022-11-15T01:30:10;15.83;;;8.03;;
6282;SDS011;3174;53.486;9.568;2022-11-15T01:32:38;14.00;;;8.10;;
6282;SDS011;3174;53.486;9.568;2022-11-15T01:35:07;11.57;;;7.33;;
6282;SDS011;3174;53.486;9.568;2022-11-15T01:37:35;11.73;;;7.73;;
6282;SDS011;3174;53.486;9.568;2022-11-15T01:40:03;13.33;;;6.97;;
6282;SDS011;3174;53.486;9.568;2022-11-15T01:42:33;13.40;;;7.37;;
6282;SDS011;3174;53.486;9.568;2022-11-15T01:45:01;18.40;;;7.63;;
6282;SDS011;3174;53.486;9.568;2022-11-15T01:47:30;12.90;;;7.23;;
6282;SDS011;3174;53.486;9.568;2022-11-15T01:50:00;13.60;;;7.50;;
6282;SDS011;3174;53.486;9.568;2022-11-15T01:52:30;12.30;;;7.57;;
6282;SDS011;3174;53.486;9.568;2022-11-15T01:55:01;15.13;;;8.10;;
6282;SDS011;3174;53.486;9.568;2022-11-15T01:57:32;13.93;;;7.77;;
6282;SDS011;3174;53.486;9.568;2022-11-15T02:00:02;12.70;;;7.03;;
6282;SDS011;3174;53.486;9.568;2022-11-15T02:02:32;12.50;;;7.43;;
6282;SDS011;3174;53.486;9.568;2022-11-15T02:05:00;13.47;;;7.43;;
6282;SDS011;3174;53.486;9.568;2022-11-15T02:07:28;15.10;;;7.80;;
6282;SDS011;3174;53.486;9.568;2022-11-15T02:09:57;17.37;;;8.30;;
6282;SDS011;3174;53.486;9.568;2022-11-15T02:12:26;14.43;;;8.07;;
6282;SDS011;3174;53.486;9.568;2022-11-15T02:14:58;11.87;;;7.20;;
6282;SDS011;3174;53.486;9.568;2022-11-15T02:17:37;12.03;;;7.10;;
6282;SDS011;3174;53.486;9.568;2022-11-15T02:20:23;11.73;;;6.43;;
6282;SDS011;3174;53.486;9.568;2022-11-15T02:23:19;11.00;;;6.37;;
6282;SDS011;3174;53.486;9.568;2022-11-15T02:25:57;13.37;;;7.10;;
6282;SDS011;3174;53.486;9.568;2022-11-15T02:28:51;11.83;;;6.37;;
6282;SDS011;3174;53.486;9.568;2022-11-15T02:31:26;11.70;;;6.13;;
6282;SDS011;3174;53.486;9.568;2022-11-15T02:33:59;13.10;;;5.87;;
6282;SDS011;3174;53.486;9.568;2022-11-15T02:36:35;9.57;;;6.00;;
6282;SDS011;3174;53.486;9.568;2022-11-15T02:39:10;11.67;;;5.93;;
6282;SDS011;3174;53.486;9.568;2022-11-15T02:41:42;11.60;;;6.53;;
6282;SDS011;3174;53.486;9.568;2022-11-15T02:44:14;13.03;;;7.23;;
6282;SDS011;3174;53.486;9.568;2022-11-15T02:46:46;9.57;;;5.67;;
6282;SDS011;3174;53.486;9.568;2022-11-15T02:49:35;12.53;;;6.70;;
6282;SDS011;3174;53.486;9.568;2022-11-15T02:52:03;9.57;;;5.97;;
6282;SDS011;3174;53.486;9.568;2022-11-15T02:54:32;11.87;;;5.97;;
6282;SDS011;3174;53.486;9.568;2022-11-15T02:57:01;10.80;;;5.67;;
6282;SDS011;3174;53.486;9.568;2022-11-15T02:59:39;13.40;;;7.03;;
6282;SDS011;3174;53.486;9.568;2022-11-15T03:02:20;13.33;;;6.43;;
6282;SDS011;3174;53.486;9.568;2022-11-15T03:04:54;14.13;;;7.03;;
6282;SDS011;3174;53.486;9.568;2022-11-15T03:07:24;13.03;;;7.03;;
6282;SDS011;3174;53.486;9.568;2022-11-15T03:09:57;14.50;;;7.90;;
6282;SDS011;3174;53.486;9.568;2022-11-15T03:12:32;13.27;;;6.90;;
6282;SDS011;3174;53.486;9.568;2022-11-15T03:15:05;13.90;;;8.00;;
6282;SDS011;3174;53.486;9.568;2022-11-15T03:17:37;12.70;;;6.53;;
6282;SDS011;3174;53.486;9.568;2022-11-15T03:20:07;13.77;;;7.07;;
6282;SDS011;3174;53.486;9.568;2022-11-15T03:22:38;12.57;;;6.77;;
6282;SDS011;3174;53.486;9.568;2022-11-15T03:25:08;8.90;;;5.53;;
6282;SDS011;3174;53.486;9.568;2022-11-15T03:27:40;13.00;;;7.40;;
6282;SDS011;3174;53.486;9.568;2022-11-15T03:30:11;14.53;;;7.77;;
6282;SDS011;3174;53.486;9.568;2022-11-15T03:32:44;13.80;;;7.60;;
6282;SDS011;3174;53.486;9.568;2022-11-15T03:35:15;14.77;;;8.17;;
6282;SDS011;3174;53.486;9.568;2022-11-15T03:37:46;15.50;;;7.67;;
6282;SDS011;3174;53.486;9.568;2022-11-15T03:40:17;13.40;;;7.17;;
6282;SDS011;3174;53.486;9.568;2022-11-15T03:42:47;14.53;;;8.23;;
6282;SDS011;3174;53.486;9.568;2022-11-15T03:45:17;12.63;;;6.70;;
6282;SDS011;3174;53.486;9.568;2022-11-15T03:47:49;13.50;;;8.00;;
6282;SDS011;3174;53.486;9.568;2022-11-15T03:50:21;15.63;;;8.10;;
6282;SDS011;3174;53.486;9.568;2022-11-15T03:52:49;12.13;;;7.50;;
6282;SDS011;3174;53.486;9.568;2022-11-15T03:55:18;15.23;;;7.97;;
6282;SDS011;3174;53.486;9.568;2022-11-15T03:57:48;17.83;;;8.93;;
6282;SDS011;3174;53.486;9.568;2022-11-15T04:00:18;14.47;;;7.30;;
6282;SDS011;3174;53.486;9.568;2022-11-15T04:02:46;17.93;;;8.13;;
6282;SDS011;3174;53.486;9.568;2022-11-15T04:05:15;13.23;;;7.00;;
6282;SDS011;3174;53.486;9.568;2022-11-15T04:07:43;13.60;;;7.73;;
6282;SDS011;3174;53.486;9.568;2022-11-15T04:10:12;13.93;;;7.93;;
6282;SDS011;3174;53.486;9.568;2022-11-15T04:12:42;15.40;;;7.60;;
6282;SDS011;3174;53.486;9.568;2022-11-15T04:15:13;11.13;;;6.93;;
6282;SDS011;3174;53.486;9.568;2022-11-15T04:17:42;12.90;;;7.03;;
6282;SDS011;3174;53.486;9.568;2022-11-15T04:20:12;13.87;;;7.80;;
6282;SDS011;3174;53.486;9.568;2022-11-15T04:23:00;18.03;;;7.43;;
6282;SDS011;3174;53.486;9.568;2022-11-15T04:25:46;13.33;;;7.33;;
6282;SDS011;3174;53.486;9.568;2022-11-15T04:28:16;12.30;;;6.83;;
6282;SDS011;3174;53.486;9.568;2022-11-15T04:30:44;13.40;;;7.90;;
6282;SDS011;3174;53.486;9.568;2022-11-15T04:33:13;12.53;;;6.63;;
6282;SDS011;3174;53.486;9.568;2022-11-15T04:35:41;14.27;;;6.93;;
6282;SDS011;3174;53.486;9.568;2022-11-15T04:38:10;8.50;;;5.37;;
6282;SDS011;3174;53.486;9.568;2022-11-15T04:40:37;11.63;;;5.80;;
6282;SDS011;3174;53.486;9.568;2022-11-15T04:43:05;10.13;;;5.87;;
6282;SDS011;3174;53.486;9.568;2022-11-15T04:45:33;9.40;;;6.00;;
6282;SDS011;3174;53.486;9.568;2022-11-15T04:48:01;9.03;;;5.90;;
6282;SDS011;3174;53.486;9.568;2022-11-15T04:50:29;9.53;;;6.03;;
6282;SDS011;3174;53.486;9.568;2022-11-15T04:52:57;8.47;;;5.13;;
6282;SDS011;3174;53.486;9.568;2022-11-15T04:55:26;9.17;;;5.53;;
6282;SDS011;3174;53.486;9.568;2022-11-15T04:57:58;9.37;;;5.00;;
6282;SDS011;3174;53.486;9.568;2022-11-15T05:00:27;10.90;;;5.40;;
6282;SDS011;3174;53.486;9.568;2022-11-15T05:02:55;16.83;;;6.50;;
6282;SDS011;3174;53.486;9.568;2022-11-15T05:05:41;11.77;;;6.63;;
6282;SDS011;3174;53.486;9.568;2022-11-15T05:08:09;8.53;;;4.43;;
6282;SDS011;3174;53.486;9.568;2022-11-15T05:10:38;11.80;;;5.57;;
6282;SDS011;3174;53.486;9.568;2022-11-15T05:13:06;10.83;;;5.90;;
6282;SDS011;3174;53.486;9.568;2022-11-15T05:15:34;8.20;;;5.17;;
6282;SDS011;3174;53.486;9.568;2022-11-15T05:18:02;9.90;;;5.50;;
6282;SDS011;3174;53.486;9.568;2022-11-15T05:20:30;10.80;;;6.07;;
6282;SDS011;3174;53.486;9.568;2022-11-15T05:22:58;9.37;;;4.90;;
6282;SDS011;3174;53.486;9.568;2022-11-15T05:25:26;9.73;;;5.50;;
6282;SDS011;3174;53.486;9.568;2022-11-15T05:27:55;7.40;;;5.20;;
6282;SDS011;3174;53.486;9.568;2022-11-15T05:30:23;9.07;;;5.40;;
6282;SDS011;3174;53.486;9.568;2022-11-15T05:32:51;9.27;;;5.17;;
6282;SDS011;3174;53.486;9.568;2022-11-15T05:35:20;8.13;;;4.53;;
6282;SDS011;3174;53.486;9.568;2022-11-15T05:37:53;11.37;;;4.87;;
6282;SDS011;3174;53.486;9.568;2022-11-15T05:40:21;8.70;;;5.40;;
6282;SDS011;3174;53.486;9.568;2022-11-15T05:42:49;10.07;;;4.93;;
6282;SDS011;3174;53.486;9.568;2022-11-15T05:45:18;7.53;;;4.70;;
6282;SDS011;3174;53.486;9.568;2022-11-15T05:47:52;11.80;;;6.60;;
6282;SDS011;3174;53.486;9.568;2022-11-15T05:50:21;7.43;;;4.43;;
6282;SDS011;3174;53.486;9.568;2022-11-15T05:52:49;9.40;;;5.37;;
6282;SDS011;3174;53.486;9.568;2022-11-15T05:55:17;9.27;;;5.23;;
6282;SDS011;3174;53.486;9.568;2022-11-15T05:57:45;8.80;;;5.27;;
6282;SDS011;3174;53.486;9.568;2022-11-15T06:00:13;8.80;;;4.93;;
6282;SDS011;3174;53.486;9.568;2022-11-15T06:02:43;8.83;;;5.30;;
6282;SDS011;3174;53.486;9.568;2022-11-15T06:05:10;10.80;;;4.80;;
6282;SDS011;3174;53.486;9.568;2022-11-15T06:07:38;7.90;;;4.77;;
6282;SDS011;3174;53.486;9.568;2022-11-15T06:10:07;8.17;;;5.23;;
6282;SDS011;3174;53.486;9.568;2022-11-15T06:12:36;10.13;;;5.20;;
6282;SDS011;3174;53.486;9.568;2022-11-15T06:15:04;9.07;;;4.93;;
6282;SDS011;3174;53.486;9.568;2022-11-15T06:17:32;8.00;;;4.83;;
6282;SDS011;3174;53.486;9.568;2022-11-15T06:20:02;7.57;;;4.90;;
6282;SDS011;3174;53.486;9.568;2022-11-15T06:22:30;8.93;;;5.43;;
6282;SDS011;3174;53.486;9.568;2022-11-15T06:24:58;8.70;;;5.37;;
6282;SDS011;3174;53.486;9.568;2022-11-15T06:27:30;8.33;;;4.63;;
6282;SDS011;3174;53.486;9.568;2022-11-15T06:29:58;8.90;;;4.63;;
6282;SDS011;3174;53.486;9.568;2022-11-15T06:32:28;8.80;;;4.83;;
6282;SDS011;3174;53.486;9.568;2022-11-15T06:34:56;8.27;;;4.90;;
6282;SDS011;3174;53.486;9.568;2022-11-15T06:37:25;7.93;;;4.90;;
6282;SDS011;3174;53.486;9.568;2022-11-15T06:39:53;9.77;;;5.43;;
6282;SDS011;3174;53.486;9.568;2022-11-15T06:42:21;10.10;;;5.33;;
6282;SDS011;3174;53.486;9.568;2022-11-15T06:44:49;11.00;;;5.00;;
6282;SDS011;3174;53.486;9.568;2022-11-15T06:47:17;7.50;;;4.50;;
6282;SDS011;3174;53.486;9.568;2022-11-15T06:49:45;9.33;;;4.57;;
6282;SDS011;3174;53.486;9.568;2022-11-15T06:52:13;8.47;;;4.63;;
6282;SDS011;3174;53.486;9.568;2022-11-15T06:54:42;8.30;;;5.10;;
6282;SDS011;3174;53.486;9.568;2022-11-15T06:57:10;9.10;;;4.80;;
6282;SDS011;3174;53.486;9.568;2022-11-15T06:59:38;9.87;;;4.97;;
6282;SDS011;3174;53.486;9.568;2022-11-15T07:02:10;9.90;;;4.93;;
6282;SDS011;3174;53.486;9.568;2022-11-15T07:04:39;8.67;;;4.87;;
6282;SDS011;3174;53.486;9.568;2022-11-15T07:07:07;9.07;;;5.00;;
6282;SDS011;3174;53.486;9.568;2022-11-15T07:09:35;9.13;;;5.23;;
6282;SDS011;3174;53.486;9.568;2022-11-15T07:12:05;6.87;;;4.53;;
6282;SDS011;3174;53.486;9.568;2022-11-15T07:14:33;9.07;;;5.10;;
6282;SDS011;3174;53.486;9.568;2022-11-15T07:17:02;9.37;;;5.00;;
6282;SDS011;3174;53.486;9.568;2022-11-15T07:19:31;8.30;;;4.60;;
6282;SDS011;3174;53.486;9.568;2022-11-15T07:21:59;10.97;;;5.27;;
6282;SDS011;3174;53.486;9.568;2022-11-15T07:24:26;8.67;;;5.53;;
6282;SDS011;3174;53.486;9.568;2022-11-15T07:26:54;6.87;;;4.53;;
6282;SDS011;3174;53.486;9.568;2022-11-15T07:29:24;9.87;;;5.03;;
6282;SDS011;3174;53.486;9.568;2022-11-15T07:31:52;13.20;;;7.77;;
6282;SDS011;3174;53.486;9.568;2022-11-15T07:34:19;11.93;;;6.90;;
6282;SDS011;3174;53.486;9.568;2022-11-15T07:36:48;8.97;;;5.67;;
6282;SDS011;3174;53.486;9.568;2022-11-15T07:39:16;10.37;;;5.53;;
6282;SDS011;3174;53.486;9.568;2022-11-15T07:41:44;7.93;;;4.90;;
6282;SDS011;3174;53.486;9.568;2022-11-15T07:44:14;11.13;;;5.70;;
6282;SDS011;3174;53.486;9.568;2022-11-15T07:46:43;10.17;;;5.73;;
6282;SDS011;3174;53.486;9.568;2022-11-15T07:49:11;7.90;;;4.83;;
6282;SDS011;3174;53.486;9.568;2022-11-15T07:51:39;10.37;;;5.27;;
6282;SDS011;3174;53.486;9.568;2022-11-15T07:54:07;13.10;;;5.83;;
6282;SDS011;3174;53.486;9.568;2022-11-15T07:56:35;9.27;;;5.37;;
6282;SDS011;3174;53.486;9.568;2022-11-15T07:59:02;14.37;;;7.50;;
6282;SDS011;3174;53.486;9.568;2022-11-15T08:01:30;11.57;;;6.37;;
6282;SDS011;3174;53.486;9.568;2022-11-15T08:04:00;8.93;;;5.07;;
6282;SDS011;3174;53.486;9.568;2022-11-15T08:06:28;11.23;;;5.80;;
6282;SDS011;3174;53.486;9.568;2022-11-15T08:08:56;9.03;;;5.07;;
6282;SDS011;3174;53.486;9.568;2022-11-15T08:11:24;8.93;;;5.37;;
6282;SDS011;3174;53.486;9.568;2022-11-15T08:13:52;10.10;;;5.57;;
6282;SDS011;3174;53.486;9.568;2022-11-15T08:16:20;10.27;;;5.87;;
6282;SDS011;3174;53.486;9.568;2022-11-15T08:18:48;10.97;;;6.03;;
6282;SDS011;3174;53.486;9.568;2022-11-15T08:21:18;8.80;;;5.57;;
6282;SDS011;3174;53.486;9.568;2022-11-15T08:23:47;9.03;;;5.80;;
6282;SDS011;3174;53.486;9.568;2022-11-15T08:26:15;11.63;;;6.53;;
6282;SDS011;3174;53.486;9.568;2022-11-15T08:28:43;13.53;;;7.30;;
6282;SDS011;3174;53.486;9.568;2022-11-15T08:31:13;10.80;;;5.90;;
6282;SDS011;3174;53.486;9.568;2022-11-15T08:33:41;14.53;;;6.63;;
6282;SDS011;3174;53.486;9.568;2022-11-15T08:36:11;13.57;;;7.40;;
6282;SDS011;3174;53.486;9.568;2022-11-15T08:38:43;13.97;;;8.10;;
6282;SDS011;3174;53.486;9.568;2022-11-15T08:41:11;10.97;;;6.40;;
6282;SDS011;3174;53.486;9.568;2022-11-15T08:43:41;11.17;;;6.07;;
6282;SDS011;3174;53.486;9.568;2022-11-15T08:46:09;13.70;;;6.53;;
6282;SDS011;3174;53.486;9.568;2022-11-15T08:48:39;9.23;;;5.73;;
6282;SDS011;3174;53.486;9.568;2022-11-15T08:51:07;18.03;;;8.27;;
6282;SDS011;3174;53.486;9.568;2022-11-15T08:53:35;17.47;;;8.00;;
6282;SDS011;3174;53.486;9.568;2022-11-15T08:56:04;15.27;;;7.27;;
6282;SDS011;3174;53.486;9.568;2022-11-15T08:58:34;16.23;;;8.30;;
6282;SDS011;3174;53.486;9.568;2022-11-15T09:01:03;17.80;;;7.77;;
6282;SDS011;3174;53.486;9.568;2022-11-15T09:03:31;9.30;;;6.13;;
6282;SDS011;3174;53.486;9.568;2022-11-15T09:06:00;10.13;;;5.90;;
6282;SDS011;3174;53.486;9.568;2022-11-15T09:08:29;10.63;;;6.60;;
6282;SDS011;3174;53.486;9.568;2022-11-15T09:11:14;9.33;;;5.57;;
6282;SDS011;3174;53.486;9.568;2022-11-15T09:13:46;11.47;;;6.00;;
6282;SDS011;3174;53.486;9.568;2022-11-15T09:16:14;17.57;;;7.43;;
6282;SDS011;3174;53.486;9.568;2022-11-15T09:18:42;11.17;;;6.47;;
6282;SDS011;3174;53.486;9.568;2022-11-15T09:21:10;13.30;;;6.30;;
6282;SDS011;3174;53.486;9.568;2022-11-15T09:23:38;9.03;;;5.70;;
6282;SDS011;3174;53.486;9.568;2022-11-15T09:26:06;10.43;;;5.83;;
6282;SDS011;3174;53.486;9.568;2022-11-15T09:28:35;9.97;;;6.17;;
6282;SDS011;3174;53.486;9.568;2022-11-15T09:31:05;11.63;;;5.90;;
6282;SDS011;3174;53.486;9.568;2022-11-15T09:33:33;8.87;;;5.70;;
6282;SDS011;3174;53.486;9.568;2022-11-15T09:36:01;10.90;;;6.30;;
6282;SDS011;3174;53.486;9.568;2022-11-15T09:38:30;14.20;;;7.27;;
6282;SDS011;3174;53.486;9.568;2022-11-15T09:41:08;10.93;;;6.13;;
6282;SDS011;3174;53.486;9.568;2022-11-15T09:43:47;11.70;;;7.10;;
6282;SDS011;3174;53.486;9.568;2022-11-15T09:46:19;9.57;;;5.27;;
6282;SDS011;3174;53.486;9.568;2022-11-15T09:48:52;8.27;;;4.87;;
6282;SDS011;3174;53.486;9.568;2022-11-15T09:51:24;8.63;;;5.47;;
6282;SDS011;3174;53.486;9.568;2022-11-15T09:53:56;9.40;;;6.23;;
6282;SDS011;3174;53.486;9.568;2022-11-15T09:56:47;9.13;;;5.30;;
6282;SDS011;3174;53.486;9.568;2022-11-15T09:59:19;8.63;;;5.63;;
6282;SDS011;3174;53.486;9.568;2022-11-15T10:01:54;9.67;;;5.33;;
6282;SDS011;3174;53.486;9.568;2022-11-15T10:04:25;8.30;;;5.37;;
6282;SDS011;3174;53.486;9.568;2022-11-15T10:06:54;12.53;;;6.80;;
6282;SDS011;3174;53.486;9.568;2022-11-15T10:09:26;10.13;;;6.30;;
6282;SDS011;3174;53.486;9.568;2022-11-15T10:11:56;10.87;;;6.23;;
6282;SDS011;3174;53.486;9.568;2022-11-15T10:14:26;9.13;;;5.50;;
6282;SDS011;3174;53.486;9.568;2022-11-15T10:17:06;10.73;;;5.77;;
6282;SDS011;3174;53.486;9.568;2022-11-15T10:19:45;10.77;;;5.80;;
6282;SDS011;3174;53.486;9.568;2022-11-15T10:22:21;8.57;;;5.47;;
6282;SDS011;3174;53.486;9.568;2022-11-15T10:25:00;9.83;;;5.47;;
6282;SDS011;3174;53.486;9.568;2022-11-15T10:27:39;9.10;;;5.43;;
6282;SDS011;3174;53.486;9.568;2022-11-15T10:30:12;9.63;;;5.57;;
6282;SDS011;3174;53.486;9.568;2022-11-15T10:32:42;9.30;;;5.77;;
6282;SDS011;3174;53.486;9.568;2022-11-15T10:35:18;8.03;;;5.17;;
6282;SDS011;3174;53.486;9.568;2022-11-15T10:37:48;10.63;;;5.57;;
6282;SDS011;3174;53.486;9.568;2022-11-15T10:40:17;8.90;;;5.63;;
6282;SDS011;3174;53.486;9.568;2022-11-15T10:42:47;11.30;;;6.40;;
6282;SDS011;3174;53.486;9.568;2022-11-15T10:45:27;10.53;;;6.13;;
6282;SDS011;3174;53.486;9.568;2022-11-15T10:48:19;9.17;;;5.37;;
6282;SDS011;3174;53.486;9.568;2022-11-15T10:50:49;8.77;;;6.33;;
6282;SDS011;3174;53.486;9.568;2022-11-15T10:53:20;8.87;;;5.50;;
6282;SDS011;3174;53.486;9.568;2022-11-15T10:55:52;8.27;;;5.60;;
6282;SDS011;3174;53.486;9.568;2022-11-15T10:58:22;9.10;;;5.73;;
6282;SDS011;3174;53.486;9.568;2022-11-15T11:01:10;10.63;;;6.33;;
6282;SDS011;3174;53.486;9.568;2022-11-15T11:03:39;10.30;;;6.53;;
6282;SDS011;3174;53.486;9.568;2022-11-15T11:06:09;10.80;;;6.10;;
6282;SDS011;3174;53.486;9.568;2022-11-15T11:08:39;10.47;;;6.43;;
6282;SDS011;3174;53.486;9.568;2022-11-15T11:11:07;9.03;;;5.60;;
6282;SDS011;3174;53.486;9.568;2022-11-15T11:13:37;10.77;;;5.23;;
6282;SDS011;3174;53.486;9.568;2022-11-15T11:16:17;7.60;;;4.23;;
6282;SDS011;3174;53.486;9.568;2022-11-15T11:19:08;6.83;;;4.07;;
6282;SDS011;3174;53.486;9.568;2022-11-15T11:21:44;10.37;;;5.77;;
6282;SDS011;3174;53.486;9.568;2022-11-15T11:24:18;8.40;;;5.23;;
6282;SDS011;3174;53.486;9.568;2022-11-15T11:26:55;7.97;;;4.90;;
6282;SDS011;3174;53.486;9.568;2022-11-15T11:29:37;9.67;;;5.10;;
6282;SDS011;3174;53.486;9.568;2022-11-15T11:32:18;10.13;;;5.33;;
6282;SDS011;3174;53.486;9.568;2022-11-15T11:34:55;9.20;;;6.20;;
6282;SDS011;3174;53.486;9.568;2022-11-15T11:37:29;9.13;;;6.20;;
6282;SDS011;3174;53.486;9.568;2022-11-15T11:40:02;8.10;;;4.80;;
6282;SDS011;3174;53.486;9.568;2022-11-15T11:42:39;6.77;;;4.27;;
6282;SDS011;3174;53.486;9.568;2022-11-15T11:45:15;7.73;;;4.23;;
6282;SDS011;3174;53.486;9.568;2022-11-15T11:47:51;6.63;;;3.93;;
6282;SDS011;3174;53.486;9.568;2022-11-15T11:50:22;6.27;;;4.30;;
6282;SDS011;3174;53.486;9.568;2022-11-15T11:52:56;6.50;;;4.30;;
6282;SDS011;3174;53.486;9.568;2022-11-15T11:55:31;6.33;;;3.60;;
6282;SDS011;3174;53.486;9.568;2022-11-15T11:58:04;6.20;;;3.50;;
6282;SDS011;3174;53.486;9.568;2022-11-15T12:00:38;7.03;;;4.50;;
6282;SDS011;3174;53.486;9.568;2022-11-15T12:03:11;5.80;;;3.57;;
6282;SDS011;3174;53.486;9.568;2022-11-15T12:05:40;6.27;;;3.87;;
6282;SDS011;3174;53.486;9.568;2022-11-15T12:08:22;5.07;;;3.20;;
6282;SDS011;3174;53.486;9.568;2022-11-15T12:10:58;5.53;;;3.87;;
6282;SDS011;3174;53.486;9.568;2022-11-15T12:13:31;6.43;;;3.50;;
6282;SDS011;3174;53.486;9.568;2022-11-15T12:16:05;4.93;;;3.30;;
6282;SDS011;3174;53.486;9.568;2022-11-15T12:18:37;4.83;;;3.33;;
6282;SDS011;3174;53.486;9.568;2022-11-15T12:21:06;6.13;;;3.57;;
6282;SDS011;3174;53.486;9.568;2022-11-15T12:23:38;7.47;;;3.53;;
6282;SDS011;3174;53.486;9.568;2022-11-15T12:26:08;4.93;;;3.30;;
6282;SDS011;3174;53.486;9.568;2022-11-15T12:28:40;5.63;;;3.33;;
6282;SDS011;3174;53.486;9.568;2022-11-15T12:31:32;5.23;;;3.70;;
6282;SDS011;3174;53.486;9.568;2022-11-15T12:34:13;5.63;;;3.33;;
6282;SDS011;3174;53.486;9.568;2022-11-15T12:36:43;8.13;;;2.87;;
6282;SDS011;3174;53.486;9.568;2022-11-15T12:39:12;4.57;;;2.70;;
6282;SDS011;3174;53.486;9.568;2022-11-15T12:41:40;5.70;;;2.80;;
6282;SDS011;3174;53.486;9.568;2022-11-15T12:44:10;4.17;;;3.03;;
6282;SDS011;3174;53.486;9.568;2022-11-15T12:49:46;5.00;;;2.90;;
6282;SDS011;3174;53.486;9.568;2022-11-15T12:52:14;5.30;;;3.27;;
6282;SDS011;3174;53.486;9.568;2022-11-15T12:54:50;4.63;;;2.90;;
6282;SDS011;3174;53.486;9.568;2022-11-15T12:57:32;4.40;;;2.97;;
6282;SDS011;3174;53.486;9.568;2022-11-15T13:00:05;5.57;;;3.30;;
6282;SDS011;3174;53.486;9.568;2022-11-15T13:03:21;5.27;;;3.13;;
6282;SDS011;3174;53.486;9.568;2022-11-15T13:06:05;4.53;;;2.60;;
6282;SDS011;3174;53.486;9.568;2022-11-15T13:08:38;3.97;;;2.60;;
6282;SDS011;3174;53.486;9.568;2022-11-15T13:17:22;4.50;;;2.70;;
6282;SDS011;3174;53.486;9.568;2022-11-15T13:20:00;5.23;;;2.47;;
6282;SDS011;3174;53.486;9.568;2022-11-15T13:22:39;4.87;;;2.73;;
6282;SDS011;3174;53.486;9.568;2022-11-15T13:25:27;4.07;;;2.80;;
6282;SDS011;3174;53.486;9.568;2022-11-15T13:28:18;4.30;;;2.60;;
6282;SDS011;3174;53.486;9.568;2022-11-15T13:30:49;5.07;;;2.70;;
6282;SDS011;3174;53.486;9.568;2022-11-15T13:33:19;3.37;;;2.47;;
6282;SDS011;3174;53.486;9.568;2022-11-15T13:35:53;3.27;;;2.63;;
6282;SDS011;3174;53.486;9.568;2022-11-15T13:38:28;4.00;;;2.53;;
6282;SDS011;3174;53.486;9.568;2022-11-15T13:40:58;3.90;;;2.70;;
6282;SDS011;3174;53.486;9.568;2022-11-15T13:43:28;3.70;;;2.40;;
6282;SDS011;3174;53.486;9.568;2022-11-15T13:46:05;3.27;;;2.53;;
6282;SDS011;3174;53.486;9.568;2022-11-15T13:48:34;4.47;;;2.60;;
6282;SDS011;3174;53.486;9.568;2022-11-15T13:51:03;5.13;;;3.00;;
6282;SDS011;3174;53.486;9.568;2022-11-15T13:53:34;4.60;;;2.70;;
6282;SDS011;3174;53.486;9.568;2022-11-15T13:56:04;4.30;;;2.87;;
6282;SDS011;3174;53.486;9.568;2022-11-15T13:58:32;4.33;;;2.30;;
6282;SDS011;3174;53.486;9.568;2022-11-15T14:01:01;3.40;;;2.53;;
6282;SDS011;3174;53.486;9.568;2022-11-15T14:03:31;3.70;;;2.50;;
6282;SDS011;3174;53.486;9.568;2022-11-15T14:06:03;2.97;;;2.40;;
6282;SDS011;3174;53.486;9.568;2022-11-15T14:08:35;5.23;;;2.50;;
6282;SDS011;3174;53.486;9.568;2022-11-15T14:11:07;5.43;;;2.77;;
6282;SDS011;3174;53.486;9.568;2022-11-15T14:13:37;6.37;;;2.70;;
6282;SDS011;3174;53.486;9.568;2022-11-15T14:16:18;5.40;;;2.80;;
6282;SDS011;3174;53.486;9.568;2022-11-15T14:18:48;4.07;;;3.17;;
6282;SDS011;3174;53.486;9.568;2022-11-15T14:21:17;4.80;;;2.80;;
6282;SDS011;3174;53.486;9.568;2022-11-15T14:23:47;3.20;;;2.67;;
6282;SDS011;3174;53.486;9.568;2022-11-15T14:26:27;4.70;;;2.73;;
6282;SDS011;3174;53.486;9.568;2022-11-15T14:28:56;4.27;;;2.53;;
6282;SDS011;3174;53.486;9.568;2022-11-15T14:31:24;5.33;;;2.93;;
6282;SDS011;3174;53.486;9.568;2022-11-15T14:33:52;4.00;;;2.77;;
6282;SDS011;3174;53.486;9.568;2022-11-15T14:36:20;3.67;;;2.60;;
6282;SDS011;3174;53.486;9.568;2022-11-15T14:38:50;3.27;;;2.67;;
6282;SDS011;3174;53.486;9.568;2022-11-15T14:41:19;3.30;;;2.30;;
6282;SDS011;3174;53.486;9.568;2022-11-15T14:43:48;5.00;;;2.30;;
6282;SDS011;3174;53.486;9.568;2022-11-15T14:46:17;4.30;;;2.93;;
6282;SDS011;3174;53.486;9.568;2022-11-15T14:48:45;5.83;;;2.97;;
6282;SDS011;3174;53.486;9.568;2022-11-15T14:51:13;7.73;;;2.80;;
6282;SDS011;3174;53.486;9.568;2022-11-15T14:53:42;5.97;;;3.07;;
6282;SDS011;3174;53.486;9.568;2022-11-15T14:56:13;4.67;;;2.83;;
6282;SDS011;3174;53.486;9.568;2022-11-15T14:58:42;4.63;;;2.70;;
6282;SDS011;3174;53.486;9.568;2022-11-15T15:01:11;5.33;;;2.93;;
6282;SDS011;3174;53.486;9.568;2022-11-15T15:03:40;4.57;;;2.80;;
6282;SDS011;3174;53.486;9.568;2022-11-15T15:06:10;4.80;;;3.10;;
6282;SDS011;3174;53.486;9.568;2022-11-15T15:08:43;3.97;;;2.53;;
6282;SDS011;3174;53.486;9.568;2022-11-15T15:11:14;4.37;;;3.00;;
6282;SDS011;3174;53.486;9.568;2022-11-15T15:13:43;3.73;;;2.37;;
6282;SDS011;3174;53.486;9.568;2022-11-15T15:16:11;4.83;;;2.77;;
6282;SDS011;3174;53.486;9.568;2022-11-15T15:18:39;4.27;;;3.10;;
6282;SDS011;3174;53.486;9.568;2022-11-15T15:21:20;5.27;;;3.20;;
6282;SDS011;3174;53.486;9.568;2022-11-15T15:23:49;7.93;;;2.90;;
6282;SDS011;3174;53.486;9.568;2022-11-15T15:26:21;5.37;;;3.00;;
6282;SDS011;3174;53.486;9.568;2022-11-15T15:28:49;4.60;;;2.93;;
6282;SDS011;3174;53.486;9.568;2022-11-15T15:31:18;5.73;;;2.80;;
6282;SDS011;3174;53.486;9.568;2022-11-15T15:33:46;5.60;;;3.10;;
6282;SDS011;3174;53.486;9.568;2022-11-15T15:36:16;5.00;;;3.10;;
6282;SDS011;3174;53.486;9.568;2022-11-15T15:38:45;4.10;;;2.87;;
6282;SDS011;3174;53.486;9.568;2022-11-15T15:41:14;5.37;;;3.00;;